Terminal Aerodrome Forecast
Issued by NWS Cleveland, OH

Current Version | Previous Version | Text Only | Print | Product List | Glossary On
Versions: 1 2 3 4 5 6 7 8 9 10 11 12 13 14 15 16 17 18 19 20
000
FTUS41 KCLE 161400 AAB
TAFMFD
TAF AMD
KMFD 161407Z 1614/1712 31006KT 6SM BR BKN006 OVC015
     FM161500 33006KT P6SM BKN012 OVC025
     FM161700 33006KT P6SM BKN025
     FM161800 33006KT P6SM BKN035
     FM162000 31006KT P6SM SCT045
     FM170200 26003KT P6SM SKC
     FM170900 19003KT 4SM BR SKC=

USA.gov is the U.S. government's official web portal to all federal, state and local government web resources and services.